Hackettstown, NJ

12:05 PM EDT on October 22, 2014 (GMT -0400)
Fox Hill Range | Change Station
CLOSE
Current Station
Personal Weather Station
Location: Long Valley, NJ
Elevation: 770 ft
Nearby Weather Stations

Elev 770 ft 40.79 °N, 74.74 °W | Updated 4 minutes ago

Overcast
Overcast
51.3 °F
Feels Like 51.3 °F
N
1.0
Wind Variable Wind from West
Gusts 4.0 mph

Today
High -- | Low -- °F
--% Chance of Precip.
Yesterday
High -- | Low -- °F
Precip. -- in
7:18 AM 6:08 PM
Waning Crescent, 2% visible
Pressure 29.91 in
Visibility 10.0 miles
Clouds Overcast 2200 ft
Dew Point 48 °F
Humidity 90%
Rainfall -999.00 in
Snow Depth Not available.
UV 1 out of 12
Pollen .30 out of 12
Air Quality Not available.
Flu Activity Sporadic
METAR KSMQ 221553Z AUTO 03006G19KT 10SM OVC022 13/09 A2991 RMK AO2 SLP128 T01330094

More Conditions Fewer Conditions

Pressure 29.91 in
Visibility 10.0 miles
Clouds Overcast 2200 ft
Dew Point 48 °F
Humidity 90%
Rainfall -999.00 in
Snow Depth Not available.
UV 1 out of 12
Pollen .30 out of 12
Air Quality Not available.
Flu Activity Sporadic
METAR KSMQ 221553Z AUTO 03006G19KT 10SM OVC022 13/09 A2991 RMK AO2 SLP128 T01330094

More Conditions Fewer Conditions

10-Day Weather Forecast

Almanac

Astronomy

Oct. 22, 2014 Rise Set
Actual Time 7:18 AM EDT 6:08 PM EDT
Civil Twilight 6:50 AM EDT 6:36 PM EDT
Nautical Twilight 6:18 AM EDT 7:08 PM EDT
Astronomical Twilight 5:46 AM EDT 7:40 PM EDT
Moon 5:56 AM EDT 5:34 PM EDT
Length of Visible Light 11h 46m
Length of Day
10h 50m
Tomorrow will be 2m 33s shorter.
Waning Crescent, 2% of the Moon is Illuminated
Today
Waning Crescent
Oct 23
New
Oct 30
First Quarter
Nov 6
Full
Nov 14
Last Quarter

Today's Extremes

State Highs State Lows

Community

WunderPhotos

Upload Photos

1,763,956 photos uploaded!

Nearby

Snow Depth

Station Depth Elevation
No new snow has been reported.

Earthquake Activity

City Distance Mag. Time & Date
No recent earthquake activity has been reported nearby.
Minimum magnitude displayed is 2.5.

Coastal Water Temperatures

Place Temperature
No Stations Reporting

Nearby Weather Stations